createdAt,value
2023-04-30T00:00:28.638Z,9.60
2023-04-30T00:02:56.074Z,9.60
2023-04-30T00:05:23.123Z,9.50
2023-04-30T00:07:50.038Z,9.50
2023-04-30T00:10:17.016Z,9.50
2023-04-30T00:12:44.032Z,9.40
2023-04-30T00:15:11.876Z,9.40
2023-04-30T00:17:38.909Z,9.40
2023-04-30T00:20:07.337Z,9.30
2023-04-30T00:22:34.424Z,9.30
2023-04-30T00:25:01.639Z,9.20
2023-04-30T00:27:28.702Z,9.20
2023-04-30T00:29:55.959Z,9.20
2023-04-30T00:32:23.333Z,9.10
2023-04-30T00:34:50.541Z,9.10
2023-04-30T00:37:17.498Z,9.00
2023-04-30T00:39:44.487Z,8.90
2023-04-30T00:42:11.402Z,8.90
2023-04-30T00:44:38.341Z,8.80
2023-04-30T00:47:05.327Z,8.80
2023-04-30T00:49:32.404Z,8.70
2023-04-30T00:51:59.363Z,8.60
2023-04-30T00:54:26.326Z,8.60
2023-04-30T00:56:53.289Z,8.60
2023-04-30T00:59:20.269Z,8.50
2023-04-30T01:01:47.273Z,8.50
2023-04-30T01:04:14.362Z,8.40
2023-04-30T01:06:41.599Z,8.40
2023-04-30T01:09:08.765Z,8.30
2023-04-30T01:12:02.120Z,8.30
2023-04-30T01:14:34.377Z,8.30
2023-04-30T01:17:11.175Z,8.30
2023-04-30T01:19:42.296Z,8.20
2023-04-30T01:22:26.111Z,8.20
2023-04-30T01:25:02.897Z,8.10
2023-04-30T01:27:48.280Z,8.10
2023-04-30T01:30:15.565Z,8.10
2023-04-30T01:32:42.593Z,8.00
2023-04-30T01:35:09.885Z,8.00
2023-04-30T01:38:04.075Z,7.90
2023-04-30T01:41:06.484Z,7.90
2023-04-30T01:43:53.750Z,7.90
2023-04-30T01:46:30.692Z,7.80
2023-04-30T01:49:31.225Z,7.80
2023-04-30T01:52:14.912Z,7.80
2023-04-30T01:54:44.934Z,7.70
2023-04-30T01:57:18.515Z,7.70
2023-04-30T01:59:45.568Z,7.70
2023-04-30T02:02:12.633Z,7.70
2023-04-30T02:04:39.657Z,7.60
2023-04-30T02:07:06.698Z,7.60
2023-04-30T02:09:33.645Z,7.60
2023-04-30T02:12:00.867Z,7.60
2023-04-30T02:14:27.796Z,7.60
2023-04-30T02:16:54.790Z,7.50
2023-04-30T02:19:21.770Z,7.60
2023-04-30T02:21:48.717Z,7.50
2023-04-30T02:24:15.714Z,7.50
2023-04-30T02:26:42.689Z,7.50
2023-04-30T02:29:10.227Z,7.50
2023-04-30T02:31:37.354Z,7.50
2023-04-30T02:34:04.332Z,7.50
2023-04-30T02:36:36.363Z,7.40
2023-04-30T02:39:03.614Z,7.40
2023-04-30T02:41:30.734Z,7.30
2023-04-30T02:43:57.720Z,7.40
2023-04-30T02:46:25.017Z,7.30
2023-04-30T02:48:52.043Z,7.30
2023-04-30T02:51:18.994Z,7.20
2023-04-30T02:53:45.987Z,7.10
2023-04-30T02:56:12.942Z,7.00
2023-04-30T02:58:39.892Z,6.90
2023-04-30T03:01:07.301Z,6.90
2023-04-30T03:03:34.318Z,6.90
2023-04-30T03:06:01.357Z,6.90
2023-04-30T03:08:28.409Z,6.90
2023-04-30T03:10:55.520Z,6.90
2023-04-30T03:13:22.551Z,6.80
2023-04-30T03:15:49.725Z,6.90
2023-04-30T03:18:16.808Z,6.90
2023-04-30T03:20:44.027Z,6.80
2023-04-30T03:23:11.020Z,6.80
2023-04-30T03:25:38.054Z,6.80
2023-04-30T03:28:05.253Z,6.80
2023-04-30T03:30:32.162Z,6.80
2023-04-30T03:32:59.135Z,6.80
2023-04-30T03:35:26.200Z,6.80
2023-04-30T03:37:53.337Z,6.80
2023-04-30T03:40:20.546Z,6.80
2023-04-30T03:42:48.807Z,6.80
2023-04-30T03:45:17.218Z,6.80
2023-04-30T03:47:44.379Z,6.80
2023-04-30T03:50:11.541Z,6.80
2023-04-30T03:52:38.616Z,6.80
2023-04-30T03:55:06.105Z,6.70
2023-04-30T03:57:33.196Z,6.70
2023-04-30T04:00:00.232Z,6.70
2023-04-30T04:02:27.304Z,6.70
2023-04-30T04:04:54.413Z,6.70
2023-04-30T04:07:21.458Z,6.70
2023-04-30T04:09:49.087Z,6.60
2023-04-30T04:12:16.192Z,6.60
2023-04-30T04:14:43.199Z,6.60
2023-04-30T04:17:10.221Z,6.60
2023-04-30T04:19:37.184Z,6.50
2023-04-30T04:22:04.656Z,6.50
2023-04-30T04:24:32.018Z,6.50
2023-04-30T04:26:59.657Z,6.50
2023-04-30T04:29:26.754Z,6.50
2023-04-30T04:31:55.601Z,6.50
2023-04-30T04:34:22.874Z,6.60
2023-04-30T04:36:49.836Z,6.60
2023-04-30T04:39:16.962Z,6.60
2023-04-30T04:41:44.129Z,6.60
2023-04-30T04:44:18.653Z,6.50
2023-04-30T04:46:46.138Z,6.60
2023-04-30T04:49:13.337Z,6.50
2023-04-30T04:51:40.575Z,6.60
2023-04-30T04:54:07.594Z,6.60
2023-04-30T04:56:34.810Z,6.60
2023-04-30T04:59:01.825Z,6.60
2023-04-30T05:01:29.815Z,6.60
2023-04-30T05:03:56.924Z,6.60
2023-04-30T05:06:24.113Z,6.70
2023-04-30T05:08:51.107Z,6.70
2023-04-30T05:11:18.145Z,6.80
2023-04-30T05:13:45.116Z,6.80
2023-04-30T05:16:12.114Z,6.80
2023-04-30T05:18:39.219Z,6.80
2023-04-30T05:21:06.434Z,6.80
2023-04-30T05:23:33.399Z,6.80
2023-04-30T05:26:00.441Z,6.90
2023-04-30T05:28:27.477Z,6.90
2023-04-30T05:30:54.500Z,6.90
2023-04-30T05:33:21.487Z,6.90
2023-04-30T05:35:48.488Z,6.90
2023-04-30T05:38:15.581Z,6.90
2023-04-30T05:40:42.640Z,7.00
2023-04-30T05:43:09.595Z,7.00
2023-04-30T05:45:36.637Z,7.10
2023-04-30T05:48:04.177Z,7.20
2023-04-30T05:50:31.230Z,7.20
2023-04-30T05:52:58.145Z,7.30
2023-04-30T05:55:25.151Z,7.40
2023-04-30T05:57:52.096Z,7.50
2023-04-30T06:00:19.244Z,7.60
2023-04-30T06:02:46.228Z,7.70
2023-04-30T06:05:15.934Z,7.80
2023-04-30T06:07:43.290Z,8.00
2023-04-30T06:10:10.467Z,8.20
2023-04-30T06:12:37.444Z,8.40
2023-04-30T06:15:04.757Z,8.70
2023-04-30T06:17:31.750Z,8.90
2023-04-30T06:20:02.461Z,9.00
2023-04-30T06:22:30.149Z,9.20
2023-04-30T06:24:58.197Z,9.30
2023-04-30T06:27:28.177Z,9.50
2023-04-30T06:29:55.582Z,9.70
2023-04-30T06:32:22.822Z,9.80
2023-04-30T06:34:49.828Z,10.00
2023-04-30T06:37:16.890Z,10.20
2023-04-30T06:39:43.851Z,10.40
2023-04-30T06:42:10.915Z,10.60
2023-04-30T06:44:38.413Z,10.70
2023-04-30T06:47:05.390Z,10.90
2023-04-30T06:49:32.377Z,11.00
2023-04-30T06:51:59.388Z,11.20
2023-04-30T06:54:27.872Z,11.40
2023-04-30T06:56:54.864Z,11.60
2023-04-30T06:59:21.848Z,12.00
2023-04-30T07:01:48.880Z,12.60
2023-04-30T07:04:15.838Z,12.80
2023-04-30T07:06:43.112Z,13.00
2023-04-30T07:09:11.155Z,13.50
2023-04-30T07:11:38.359Z,13.80
2023-04-30T07:14:05.411Z,14.30
2023-04-30T07:16:32.437Z,14.80
2023-04-30T07:19:00.163Z,15.40
2023-04-30T07:21:28.023Z,15.90
2023-04-30T07:23:55.067Z,16.60
2023-04-30T07:26:25.128Z,17.10
2023-04-30T07:28:52.290Z,17.50
2023-04-30T07:31:19.519Z,17.70
2023-04-30T07:33:46.883Z,17.80
2023-04-30T07:36:14.045Z,18.20
2023-04-30T07:38:41.012Z,18.70
2023-04-30T07:41:09.662Z,19.20
2023-04-30T07:43:37.407Z,19.40
2023-04-30T07:46:04.487Z,19.90
2023-04-30T07:48:31.567Z,20.10
2023-04-30T07:50:58.580Z,20.40
2023-04-30T07:53:25.592Z,20.50
2023-04-30T07:55:52.611Z,20.70
2023-04-30T07:58:19.640Z,20.90
2023-04-30T08:00:46.664Z,21.00
2023-04-30T08:03:13.960Z,21.30
2023-04-30T08:05:41.620Z,21.50
2023-04-30T08:08:08.995Z,21.50
2023-04-30T08:10:37.512Z,21.80
2023-04-30T08:13:05.299Z,21.70
2023-04-30T08:15:34.283Z,22.10
2023-04-30T08:18:01.398Z,22.10
2023-04-30T08:20:28.702Z,22.30
2023-04-30T08:22:55.855Z,22.20
2023-04-30T08:25:23.008Z,22.40
2023-04-30T08:27:50.209Z,22.10
2023-04-30T08:30:17.242Z,21.70
2023-04-30T08:32:44.406Z,21.60
2023-04-30T08:35:11.531Z,22.00
2023-04-30T08:37:38.565Z,22.10
2023-04-30T08:40:09.880Z,22.10
2023-04-30T08:42:37.465Z,22.40
2023-04-30T08:45:05.293Z,22.70
2023-04-30T08:47:32.331Z,23.10
2023-04-30T08:49:59.327Z,23.20
2023-04-30T08:52:27.065Z,23.40
2023-04-30T08:54:54.386Z,23.00
2023-04-30T08:57:21.491Z,22.80
2023-04-30T08:59:48.512Z,22.80
2023-04-30T09:02:15.747Z,22.90
2023-04-30T09:04:42.821Z,22.80
2023-04-30T09:07:11.582Z,23.10
2023-04-30T09:09:38.797Z,23.20
2023-04-30T09:12:19.093Z,22.80
2023-04-30T09:15:03.951Z,23.00
2023-04-30T09:17:32.001Z,23.30
2023-04-30T09:20:09.425Z,23.30
2023-04-30T09:22:37.609Z,22.90
2023-04-30T09:25:04.888Z,22.60
2023-04-30T09:27:31.885Z,22.30
2023-04-30T09:29:58.903Z,21.80
2023-04-30T09:32:26.358Z,21.80
2023-04-30T09:34:53.393Z,21.70
2023-04-30T09:37:20.371Z,21.70
2023-04-30T09:39:51.733Z,21.70
2023-04-30T09:42:21.802Z,21.40
2023-04-30T09:44:48.992Z,21.50
2023-04-30T09:47:20.046Z,21.50
2023-04-30T09:49:54.185Z,21.50
2023-04-30T09:52:21.424Z,21.60
2023-04-30T09:54:48.574Z,21.50
2023-04-30T09:57:16.090Z,21.30
2023-04-30T09:59:46.827Z,21.30
2023-04-30T10:02:15.993Z,21.20
2023-04-30T10:04:43.738Z,20.80
2023-04-30T10:07:20.153Z,20.50
2023-04-30T10:09:50.939Z,20.50
2023-04-30T10:12:42.484Z,20.70
2023-04-30T10:15:16.362Z,20.60
2023-04-30T10:17:44.431Z,20.50
2023-04-30T10:20:11.660Z,20.40
2023-04-30T10:22:38.659Z,20.60
2023-04-30T10:25:06.250Z,20.50
2023-04-30T10:27:33.855Z,20.50
2023-04-30T10:30:00.863Z,20.80
2023-04-30T10:32:33.008Z,20.70
2023-04-30T10:35:13.979Z,20.70
2023-04-30T10:37:46.611Z,20.70
2023-04-30T10:40:15.094Z,20.70
2023-04-30T10:42:54.752Z,20.70
2023-04-30T10:45:38.371Z,20.40
2023-04-30T10:48:06.594Z,20.60
2023-04-30T10:50:33.813Z,20.80
2023-04-30T10:53:04.756Z,20.80
2023-04-30T10:55:32.165Z,20.60
2023-04-30T10:57:59.327Z,20.60
2023-04-30T11:00:27.748Z,20.80
2023-04-30T11:02:58.984Z,20.80
2023-04-30T11:05:38.910Z,20.70
2023-04-30T11:08:06.549Z,20.70
2023-04-30T11:10:34.770Z,20.40
2023-04-30T11:13:06.253Z,20.50
2023-04-30T11:15:41.582Z,20.50
2023-04-30T11:18:09.032Z,20.70
2023-04-30T11:20:40.535Z,20.90
2023-04-30T11:23:25.355Z,20.80
2023-04-30T11:26:05.023Z,20.90
2023-04-30T11:28:34.902Z,20.70
2023-04-30T11:31:02.408Z,20.70
2023-04-30T11:33:31.020Z,20.90
2023-04-30T11:35:59.402Z,20.80
2023-04-30T11:38:36.416Z,20.80
2023-04-30T11:41:04.034Z,20.70
2023-04-30T11:43:32.066Z,20.80
2023-04-30T11:46:05.822Z,20.90
2023-04-30T11:48:34.379Z,21.00
2023-04-30T11:51:04.770Z,21.00
2023-04-30T11:53:32.062Z,20.80
2023-04-30T11:56:03.195Z,20.90
2023-04-30T11:58:34.515Z,20.90
2023-04-30T12:01:01.743Z,21.10
2023-04-30T12:03:29.533Z,21.10
2023-04-30T12:05:56.749Z,21.10
2023-04-30T12:08:24.386Z,21.20
2023-04-30T12:10:51.523Z,21.10
2023-04-30T12:13:18.513Z,21.00
2023-04-30T12:15:58.543Z,20.90
2023-04-30T12:18:26.481Z,21.00
2023-04-30T12:20:53.433Z,21.00
2023-04-30T12:23:20.502Z,21.10
2023-04-30T12:25:47.974Z,20.90
2023-04-30T12:28:15.010Z,20.90
2023-04-30T12:30:42.568Z,21.10
2023-04-30T12:33:10.255Z,21.10
2023-04-30T12:35:37.323Z,21.20
2023-04-30T12:38:04.941Z,21.20
2023-04-30T12:40:32.044Z,20.90
2023-04-30T12:43:02.773Z,20.80
2023-04-30T12:45:48.244Z,20.60
2023-04-30T12:48:16.579Z,20.90
2023-04-30T12:50:48.103Z,20.90
2023-04-30T12:53:15.498Z,20.90
2023-04-30T12:55:42.715Z,21.10
2023-04-30T12:58:11.324Z,21.10
2023-04-30T13:00:45.330Z,21.00
2023-04-30T13:03:13.588Z,20.80
2023-04-30T13:05:46.429Z,20.80
2023-04-30T13:08:14.385Z,20.80
2023-04-30T13:10:41.581Z,20.80
2023-04-30T13:13:08.536Z,20.70
2023-04-30T13:15:35.616Z,20.90
2023-04-30T13:18:04.008Z,20.80
2023-04-30T13:20:31.095Z,20.90
2023-04-30T13:22:58.066Z,20.90
2023-04-30T13:25:25.058Z,21.00
2023-04-30T13:27:52.112Z,21.00
2023-04-30T13:30:19.190Z,21.20
2023-04-30T13:32:46.732Z,21.20
2023-04-30T13:35:13.779Z,20.90
2023-04-30T13:37:41.116Z,21.00
2023-04-30T13:40:08.880Z,21.30
2023-04-30T13:42:38.059Z,21.50
2023-04-30T13:45:07.290Z,21.50
2023-04-30T13:47:35.202Z,21.60
2023-04-30T13:50:03.413Z,21.60
2023-04-30T13:52:30.641Z,21.50
2023-04-30T13:54:58.124Z,21.40
2023-04-30T13:57:25.266Z,21.20
2023-04-30T13:59:52.867Z,21.20
2023-04-30T14:02:20.033Z,21.10
2023-04-30T14:05:02.144Z,21.00
2023-04-30T14:07:32.509Z,20.80
2023-04-30T14:09:59.529Z,20.90
2023-04-30T14:12:26.508Z,21.10
2023-04-30T14:14:53.564Z,21.10
2023-04-30T14:17:20.797Z,21.00
2023-04-30T14:19:47.937Z,21.00
2023-04-30T14:22:14.975Z,20.90
2023-04-30T14:24:42.096Z,20.90
2023-04-30T14:27:09.132Z,20.60
2023-04-30T14:29:36.079Z,20.60
2023-04-30T14:32:04.401Z,20.70
2023-04-30T14:34:32.253Z,20.60
2023-04-30T14:37:01.846Z,20.70
2023-04-30T14:39:28.860Z,20.50
2023-04-30T14:41:55.826Z,20.30
2023-04-30T14:44:25.103Z,20.30
2023-04-30T14:46:52.260Z,20.30
2023-04-30T14:49:19.370Z,20.50
2023-04-30T14:51:46.300Z,20.60
2023-04-30T14:54:13.284Z,20.60
2023-04-30T14:56:40.309Z,20.50
2023-04-30T14:59:07.244Z,20.40
2023-04-30T15:01:34.520Z,20.40
2023-04-30T15:04:02.320Z,20.60
2023-04-30T15:06:29.400Z,20.50
2023-04-30T15:08:56.550Z,20.50
2023-04-30T15:11:24.378Z,20.50
2023-04-30T15:13:51.397Z,20.60
2023-04-30T15:16:18.449Z,20.60
2023-04-30T15:18:45.542Z,20.60
2023-04-30T15:21:12.683Z,20.60
2023-04-30T15:23:39.660Z,20.60
2023-04-30T15:26:06.889Z,20.50
2023-04-30T15:28:33.864Z,20.40
2023-04-30T15:31:01.867Z,20.50
2023-04-30T15:33:30.824Z,20.40
2023-04-30T15:35:58.266Z,20.40
2023-04-30T15:38:25.215Z,20.50
2023-04-30T15:40:52.225Z,20.50
2023-04-30T15:43:20.607Z,20.40
2023-04-30T15:45:48.524Z,20.40
2023-04-30T15:48:15.606Z,20.30
2023-04-30T15:50:42.647Z,20.30
2023-04-30T15:53:09.657Z,20.30
2023-04-30T15:55:36.971Z,20.10
2023-04-30T15:58:04.591Z,20.00
2023-04-30T16:00:31.696Z,20.10
2023-04-30T16:02:58.786Z,20.20
2023-04-30T16:05:25.827Z,20.20
2023-04-30T16:07:53.774Z,20.10
2023-04-30T16:10:21.570Z,20.00
2023-04-30T16:12:48.646Z,20.00
2023-04-30T16:15:15.804Z,19.90
2023-04-30T16:17:42.806Z,19.80
2023-04-30T16:20:11.229Z,19.70
2023-04-30T16:22:38.174Z,19.70
2023-04-30T16:25:07.805Z,19.80
2023-04-30T16:27:37.167Z,19.70
2023-04-30T16:30:05.888Z,19.60
2023-04-30T16:32:33.193Z,19.40
2023-04-30T16:35:00.201Z,19.40
2023-04-30T16:37:28.168Z,19.40
2023-04-30T16:39:55.411Z,19.30
2023-04-30T16:42:22.689Z,19.30
2023-04-30T16:44:49.659Z,19.20
2023-04-30T16:47:18.802Z,19.30
2023-04-30T16:49:45.860Z,19.40
2023-04-30T16:52:12.909Z,19.30
2023-04-30T16:54:39.885Z,19.30
2023-04-30T16:57:07.387Z,19.20
2023-04-30T16:59:34.463Z,19.30
2023-04-30T17:02:02.161Z,19.20
2023-04-30T17:04:29.357Z,19.10
2023-04-30T17:06:57.227Z,19.10
2023-04-30T17:09:24.503Z,19.10
2023-04-30T17:11:51.629Z,19.20
2023-04-30T17:14:18.693Z,19.10
2023-04-30T17:16:46.605Z,19.10
2023-04-30T17:19:13.702Z,19.00
2023-04-30T17:21:40.705Z,18.90
2023-04-30T17:24:08.144Z,18.90
2023-04-30T17:26:35.192Z,18.90
2023-04-30T17:29:02.257Z,18.70
2023-04-30T17:31:30.616Z,18.60
2023-04-30T17:33:57.639Z,18.70
2023-04-30T17:36:25.072Z,18.70
2023-04-30T17:38:52.083Z,18.70
2023-04-30T17:41:19.169Z,18.50
2023-04-30T17:43:46.157Z,18.50
2023-04-30T17:46:13.474Z,18.50
2023-04-30T17:48:40.543Z,18.40
2023-04-30T17:51:08.187Z,18.40
2023-04-30T17:53:35.241Z,18.40
2023-04-30T17:56:02.528Z,18.30
2023-04-30T17:58:30.618Z,18.00
2023-04-30T18:00:59.098Z,17.90
2023-04-30T18:03:26.174Z,17.90
2023-04-30T18:05:53.207Z,17.90
2023-04-30T18:08:20.203Z,17.90
2023-04-30T18:10:48.013Z,17.90
2023-04-30T18:13:14.981Z,17.80
2023-04-30T18:15:41.923Z,17.80
2023-04-30T18:18:09.450Z,17.70
2023-04-30T18:20:36.580Z,17.60
2023-04-30T18:23:05.908Z,17.50
2023-04-30T18:25:34.448Z,17.50
2023-04-30T18:28:01.629Z,17.50
2023-04-30T18:30:28.566Z,17.40
2023-04-30T18:32:55.634Z,17.40
2023-04-30T18:35:22.695Z,17.20
2023-04-30T18:37:49.987Z,17.10
2023-04-30T18:40:17.114Z,17.00
2023-04-30T18:42:44.187Z,17.00
2023-04-30T18:45:11.999Z,17.10
2023-04-30T18:47:39.097Z,17.10
2023-04-30T18:50:07.957Z,17.10
2023-04-30T18:52:35.040Z,17.10
2023-04-30T18:55:02.085Z,17.00
2023-04-30T18:57:29.066Z,16.80
2023-04-30T18:59:56.722Z,16.60
2023-04-30T19:02:24.300Z,16.50
2023-04-30T19:04:52.379Z,16.40
2023-04-30T19:07:19.360Z,16.30
2023-04-30T19:09:48.686Z,16.30
2023-04-30T19:12:15.661Z,16.20
2023-04-30T19:14:42.805Z,16.00
2023-04-30T19:17:09.862Z,16.00
2023-04-30T19:19:36.823Z,15.90
2023-04-30T19:22:04.156Z,15.80
2023-04-30T19:24:31.150Z,15.80
2023-04-30T19:26:58.101Z,15.80
2023-04-30T19:29:25.424Z,15.70
2023-04-30T19:31:53.076Z,15.70
2023-04-30T19:34:20.267Z,15.70
2023-04-30T19:36:47.769Z,15.70
2023-04-30T19:39:16.201Z,15.70
2023-04-30T19:41:43.131Z,15.70
2023-04-30T19:44:10.371Z,15.60
2023-04-30T19:46:37.525Z,15.60
2023-04-30T19:49:04.666Z,15.60
2023-04-30T19:51:32.066Z,15.50
2023-04-30T19:53:59.527Z,15.50
2023-04-30T19:56:26.618Z,15.40
2023-04-30T19:58:53.586Z,15.40
2023-04-30T20:01:20.645Z,15.40
2023-04-30T20:03:48.163Z,15.40
2023-04-30T20:06:15.444Z,15.40
2023-04-30T20:08:42.503Z,15.40
2023-04-30T20:11:09.457Z,15.40
2023-04-30T20:13:36.633Z,15.40
2023-04-30T20:16:04.232Z,15.40
2023-04-30T20:18:31.276Z,15.40
2023-04-30T20:20:58.812Z,15.40
2023-04-30T20:23:25.772Z,15.40
2023-04-30T20:25:53.666Z,15.30
2023-04-30T20:28:20.705Z,15.30
2023-04-30T20:30:48.287Z,15.30
2023-04-30T20:33:15.425Z,15.20
2023-04-30T20:35:46.361Z,15.20
2023-04-30T20:38:13.832Z,15.20
2023-04-30T20:40:41.260Z,15.10
2023-04-30T20:43:11.269Z,15.10
2023-04-30T20:45:38.388Z,15.10
2023-04-30T20:48:06.769Z,15.10
2023-04-30T20:50:33.838Z,15.00
2023-04-30T20:53:00.853Z,15.00
2023-04-30T20:55:27.770Z,15.00
2023-04-30T20:57:54.706Z,14.90
2023-04-30T21:00:21.781Z,14.90
2023-04-30T21:02:48.993Z,14.80
2023-04-30T21:05:16.054Z,14.80
2023-04-30T21:07:42.974Z,14.80
2023-04-30T21:10:10.170Z,14.70
2023-04-30T21:12:37.100Z,14.70
2023-04-30T21:15:04.634Z,14.70
2023-04-30T21:17:32.037Z,14.60
2023-04-30T21:20:00.735Z,14.60
2023-04-30T21:22:27.898Z,14.50
2023-04-30T21:24:54.857Z,14.50
2023-04-30T21:27:22.110Z,14.40
2023-04-30T21:29:49.173Z,14.30
2023-04-30T21:32:16.980Z,14.30
2023-04-30T21:34:44.895Z,14.30
2023-04-30T21:37:11.851Z,14.20
2023-04-30T21:39:38.845Z,14.10
2023-04-30T21:42:05.822Z,14.00
2023-04-30T21:44:33.207Z,13.90
2023-04-30T21:47:00.403Z,13.90
2023-04-30T21:49:27.784Z,13.90
2023-04-30T21:51:54.806Z,13.90
2023-04-30T21:54:21.825Z,13.80
2023-04-30T21:56:48.882Z,13.80
2023-04-30T21:59:15.893Z,13.80
2023-04-30T22:01:43.007Z,13.80
2023-04-30T22:04:10.091Z,13.80
2023-04-30T22:06:37.590Z,13.80
2023-04-30T22:09:04.787Z,13.80
2023-04-30T22:11:31.898Z,13.80
2023-04-30T22:13:59.117Z,13.80
2023-04-30T22:16:26.269Z,13.80
2023-04-30T22:18:53.476Z,13.80
2023-04-30T22:21:20.559Z,13.70
2023-04-30T22:23:47.778Z,13.80
2023-04-30T22:26:15.525Z,13.70
2023-04-30T22:28:42.569Z,13.70
2023-04-30T22:31:09.650Z,13.70
2023-04-30T22:33:37.169Z,13.60
2023-04-30T22:36:05.390Z,13.70
2023-04-30T22:38:32.621Z,13.60
2023-04-30T22:41:00.473Z,13.60
2023-04-30T22:43:29.385Z,13.50
2023-04-30T22:45:59.359Z,13.60
2023-04-30T22:48:27.810Z,13.50
2023-04-30T22:50:55.724Z,13.50
2023-04-30T22:53:22.706Z,13.50
2023-04-30T22:55:49.934Z,13.50
2023-04-30T22:58:17.274Z,13.50
2023-04-30T23:00:44.255Z,13.50
2023-04-30T23:03:11.558Z,13.40
2023-04-30T23:05:38.541Z,13.40
2023-04-30T23:08:05.493Z,13.30
2023-04-30T23:10:32.457Z,13.30
2023-04-30T23:12:59.395Z,13.20
2023-04-30T23:15:26.921Z,13.20
2023-04-30T23:17:54.712Z,13.20
2023-04-30T23:20:22.988Z,13.30
2023-04-30T23:22:50.352Z,13.30
2023-04-30T23:25:17.346Z,13.30
2023-04-30T23:27:45.317Z,13.20
2023-04-30T23:30:12.751Z,13.20
2023-04-30T23:32:39.859Z,13.20
2023-04-30T23:35:07.989Z,13.20
2023-04-30T23:37:35.347Z,13.20
2023-04-30T23:40:02.509Z,13.20
2023-04-30T23:42:29.459Z,13.20
2023-04-30T23:44:56.406Z,13.20
2023-04-30T23:47:23.450Z,13.20
2023-04-30T23:49:50.488Z,13.20
2023-04-30T23:52:17.437Z,13.20
2023-04-30T23:54:44.597Z,13.20
2023-04-30T23:57:11.611Z,13.20
2023-04-30T23:59:38.822Z,13.10
